Time;durP1;ratioP1;P1;durP2;ratioP2;P2;SDS_P1;SDS_P2;PMS_P1;PMS_P2;Temp;Humidity;BMP_temperature;BMP_pressure;BME280_temperature;BME280_humidity;BME280_pressure;Samples;Min_cycle;Max_cycle;Signal;HPM_P1;HPM_P2
2020/12/27 00:02:02;;;;;;;3.05;1.10;;;8.40;99.90;;;;;;5034731;28;20191;-83
2020/12/27 00:04:28;;;;;;;1.50;1.40;;;8.40;99.90;;;;;;5034624;28;20196;-83
2020/12/27 00:06:55;;;;;;;2.28;1.50;;;8.50;99.90;;;;;;5034924;28;20647;-83
2020/12/27 00:09:21;;;;;;;1.30;1.15;;;8.50;99.90;;;;;;5034789;28;20573;-82
2020/12/27 00:11:51;;;;;;;5.10;1.60;;;8.60;99.90;;;;;;5034885;28;20658;-83
2020/12/27 00:14:17;;;;;;;2.55;1.52;;;8.60;99.90;;;;;;5034965;28;20215;-83
2020/12/27 00:16:43;;;;;;;1.55;1.45;;;8.40;99.90;;;;;;5034739;28;20204;-83
2020/12/27 00:19:09;;;;;;;1.30;1.20;;;8.40;99.90;;;;;;5034763;28;20265;-83
2020/12/27 00:21:35;;;;;;;2.88;1.35;;;8.50;99.90;;;;;;5034519;28;20200;-83
2020/12/27 00:24:02;;;;;;;1.40;1.30;;;8.50;99.90;;;;;;5034401;28;20203;-83
2020/12/27 00:26:29;;;;;;;3.67;1.30;;;8.60;99.90;;;;;;5034356;28;20200;-83
2020/12/27 00:28:55;;;;;;;1.42;1.33;;;8.50;99.90;;;;;;5034691;28;20200;-83
2020/12/27 00:31:21;;;;;;;3.60;1.73;;;8.50;99.90;;;;;;5034127;28;20218;-83
2020/12/27 00:33:48;;;;;;;1.73;1.10;;;8.60;99.90;;;;;;5034026;28;20238;-83
2020/12/27 00:36:18;;;;;;;2.53;1.38;;;8.70;99.90;;;;;;5034548;28;20195;-82
2020/12/27 00:38:44;;;;;;;2.50;1.25;;;8.50;99.90;;;;;;5033610;28;20191;-83
2020/12/27 00:41:11;;;;;;;1.90;1.40;;;8.40;99.90;;;;;;5034158;28;20199;-83
2020/12/27 00:43:37;;;;;;;1.40;1.30;;;8.30;99.90;;;;;;5034320;28;20196;-83
2020/12/27 00:46:04;;;;;;;1.40;1.30;;;8.10;99.90;;;;;;5034148;28;20203;-82
2020/12/27 00:48:30;;;;;;;1.50;1.40;;;8.30;99.90;;;;;;5034159;28;20200;-83
2020/12/27 00:50:56;;;;;;;2.30;1.30;;;8.30;99.90;;;;;;5033806;28;20541;-83
2020/12/27 00:53:22;;;;;;;1.30;1.20;;;8.40;99.90;;;;;;5033897;28;20200;-83
2020/12/27 00:55:48;;;;;;;1.10;1.00;;;8.40;99.90;;;;;;5033972;28;20223;-83
2020/12/27 00:58:15;;;;;;;1.25;1.13;;;8.50;99.90;;;;;;5034008;28;20214;-83
2020/12/27 01:00:42;;;;;;;1.67;1.45;;;8.30;99.90;;;;;;5033931;28;20203;-83
2020/12/27 01:03:08;;;;;;;1.60;1.45;;;8.50;99.90;;;;;;5033670;28;20200;-83
2020/12/27 01:05:34;;;;;;;2.30;1.30;;;8.40;99.90;;;;;;5033609;28;20226;-83
2020/12/27 01:08:00;;;;;;;2.25;1.25;;;8.30;99.90;;;;;;5033686;28;20199;-83
2020/12/27 01:10:27;;;;;;;1.55;1.20;;;8.30;99.90;;;;;;5033668;28;20196;-83
2020/12/27 01:12:53;;;;;;;3.55;1.85;;;8.50;99.90;;;;;;5033698;28;20195;-83
2020/12/27 01:15:20;;;;;;;1.95;1.05;;;8.50;99.90;;;;;;5033378;28;20227;-82
2020/12/27 01:17:46;;;;;;;2.17;1.35;;;8.30;99.90;;;;;;5033923;28;20678;-84
2020/12/27 01:20:12;;;;;;;1.10;1.00;;;8.40;99.90;;;;;;5033608;28;20199;-83
2020/12/27 01:22:38;;;;;;;1.20;1.10;;;8.40;99.90;;;;;;5033476;28;20724;-83
2020/12/27 01:25:05;;;;;;;1.13;1.02;;;8.40;99.90;;;;;;5033469;28;20234;-83
2020/12/27 01:27:31;;;;;;;1.42;1.25;;;8.50;99.90;;;;;;5033562;28;20204;-83
2020/12/27 01:29:57;;;;;;;1.23;1.10;;;8.50;99.90;;;;;;5033688;28;20222;-83
2020/12/27 01:32:24;;;;;;;3.35;1.40;;;8.50;99.90;;;;;;5032964;28;20230;-84
2020/12/27 01:34:50;;;;;;;1.20;1.10;;;8.50;99.90;;;;;;5033060;28;20226;-83
2020/12/27 01:37:16;;;;;;;1.30;1.10;;;8.40;99.90;;;;;;5033160;28;20219;-83
2020/12/27 01:39:42;;;;;;;1.33;1.23;;;8.30;99.90;;;;;;5033382;28;20198;-83
2020/12/27 01:42:09;;;;;;;1.13;1.00;;;8.30;99.90;;;;;;5033275;28;20199;-83
2020/12/27 01:44:35;;;;;;;1.10;1.00;;;8.20;99.90;;;;;;5033221;28;20207;-83
2020/12/27 01:47:14;;;;;;;2.15;1.25;;;8.10;99.90;;;;;;5033397;28;20206;-83
2020/12/27 01:49:41;;;;;;;1.20;1.00;;;8.20;99.90;;;;;;5034768;28;20199;-83
2020/12/27 01:52:08;;;;;;;2.95;0.98;;;8.30;99.90;;;;;;5037259;28;20200;-83
2020/12/27 01:54:34;;;;;;;1.10;1.00;;;8.30;99.90;;;;;;5037217;28;20231;-83
2020/12/27 01:57:03;;;;;;;1.20;1.10;;;8.20;99.90;;;;;;5037382;28;20204;-83
2020/12/27 01:59:32;;;;;;;1.48;1.05;;;8.40;99.90;;;;;;5037309;28;20208;-83
2020/12/27 02:01:58;;;;;;;1.10;1.00;;;8.30;99.90;;;;;;5036937;28;20318;-83
2020/12/27 02:04:25;;;;;;;1.13;0.82;;;8.20;99.90;;;;;;5036981;28;20192;-83
2020/12/27 02:06:52;;;;;;;1.10;1.00;;;8.20;99.90;;;;;;5037153;28;20565;-83
2020/12/27 02:09:19;;;;;;;1.60;1.48;;;8.10;99.90;;;;;;5036890;28;20199;-83
2020/12/27 02:11:45;;;;;;;1.40;0.90;;;8.20;99.90;;;;;;5036954;28;20223;-83
2020/12/27 02:14:11;;;;;;;1.88;1.20;;;8.10;99.90;;;;;;5036964;28;20223;-82
2020/12/27 02:16:38;;;;;;;1.20;1.00;;;8.30;99.90;;;;;;5036713;28;20199;-83
2020/12/27 02:19:07;;;;;;;2.72;0.88;;;8.40;99.90;;;;;;5036952;28;20541;-83
2020/12/27 02:21:34;;;;;;;1.13;1.02;;;8.40;99.90;;;;;;5036658;28;20191;-83
2020/12/27 02:24:01;;;;;;;1.17;1.05;;;8.30;99.90;;;;;;5036646;28;20199;-86
2020/12/27 02:26:28;;;;;;;1.20;0.90;;;8.40;99.90;;;;;;5036848;28;20200;-83
2020/12/27 02:28:55;;;;;;;1.65;1.10;;;8.40;99.90;;;;;;5036861;28;20249;-83
2020/12/27 02:31:22;;;;;;;2.75;1.10;;;8.50;99.90;;;;;;5036972;28;20199;-83
2020/12/27 02:33:48;;;;;;;1.20;0.90;;;8.40;99.90;;;;;;5036526;28;20278;-84
2020/12/27 02:36:14;;;;;;;1.10;1.00;;;8.40;99.90;;;;;;5036546;28;20337;-83
2020/12/27 02:38:41;;;;;;;1.35;1.00;;;8.40;99.90;;;;;;5036728;28;20199;-83
2020/12/27 02:41:14;;;;;;;2.08;1.00;;;8.30;99.90;;;;;;5036610;28;20192;-83
2020/12/27 02:43:40;;;;;;;2.10;1.10;;;8.20;99.90;;;;;;5036376;28;20613;-83
2020/12/27 02:46:17;;;;;;;1.10;1.00;;;8.20;99.90;;;;;;5036239;28;20192;-83
2020/12/27 02:48:43;;;;;;;1.10;0.98;;;8.30;99.90;;;;;;5036542;28;20657;-83
2020/12/27 02:51:11;;;;;;;1.35;1.23;;;8.30;99.90;;;;;;5036417;28;20215;-83
2020/12/27 02:53:37;;;;;;;1.10;0.93;;;8.50;99.90;;;;;;5036210;28;20192;-83
2020/12/27 02:56:03;;;;;;;1.45;1.10;;;8.60;99.90;;;;;;5036201;28;20223;-83
2020/12/27 02:58:31;;;;;;;1.00;0.82;;;8.60;99.90;;;;;;5036055;28;20199;-83
2020/12/27 03:00:57;;;;;;;1.00;0.90;;;8.70;99.90;;;;;;5035344;28;20192;-83
2020/12/27 03:03:24;;;;;;;1.58;1.00;;;8.50;99.90;;;;;;5035991;28;20191;-83
2020/12/27 03:05:50;;;;;;;1.00;0.80;;;8.30;99.90;;;;;;5035832;28;20203;-83
2020/12/27 03:08:16;;;;;;;2.15;1.00;;;8.40;99.90;;;;;;5035947;28;20647;-83
2020/12/27 03:10:42;;;;;;;1.15;1.05;;;8.50;99.90;;;;;;5035822;28;20222;-83
2020/12/27 03:13:08;;;;;;;1.33;1.15;;;8.60;99.90;;;;;;5035804;28;20639;-83
2020/12/27 03:15:35;;;;;;;1.20;1.02;;;8.50;99.90;;;;;;5035668;28;20223;-84
2020/12/27 03:18:01;;;;;;;1.25;1.10;;;8.40;99.90;;;;;;5036080;28;20580;-83
2020/12/27 03:20:28;;;;;;;2.20;1.20;;;8.30;99.90;;;;;;5035911;28;20191;-83
2020/12/27 03:22:54;;;;;;;1.30;1.00;;;8.20;99.90;;;;;;5035738;28;20192;-83
2020/12/27 03:25:20;;;;;;;2.10;0.85;;;8.30;99.90;;;;;;5035521;28;20682;-83
2020/12/27 03:27:46;;;;;;;1.27;1.17;;;8.40;99.90;;;;;;5035575;28;20229;-83
2020/12/27 03:30:12;;;;;;;1.10;0.80;;;8.50;99.90;;;;;;5035667;28;20246;-83
2020/12/27 03:32:40;;;;;;;0.93;0.70;;;8.50;99.90;;;;;;5035078;28;20582;-83
2020/12/27 03:35:06;;;;;;;0.90;0.80;;;8.50;99.90;;;;;;5035491;28;20585;-83
2020/12/27 03:37:35;;;;;;;1.00;0.80;;;8.80;99.90;;;;;;5035616;28;20615;-83
2020/12/27 03:40:03;;;;;;;1.30;0.85;;;8.70;99.90;;;;;;5035376;28;20192;-83
2020/12/27 03:42:29;;;;;;;1.58;0.85;;;8.50;99.90;;;;;;5035270;28;20199;-83
2020/12/27 03:44:55;;;;;;;1.15;0.90;;;8.50;99.90;;;;;;5035104;28;20211;-83
2020/12/27 03:47:21;;;;;;;1.00;0.80;;;8.50;99.90;;;;;;5035250;28;20196;-83
2020/12/27 03:49:48;;;;;;;1.75;0.73;;;8.50;99.90;;;;;;5035081;28;20577;-83
2020/12/27 03:52:15;;;;;;;1.13;0.98;;;8.50;99.90;;;;;;5035145;28;20191;-83
2020/12/27 03:54:41;;;;;;;1.42;1.00;;;8.40;99.90;;;;;;5035072;28;20216;-82
2020/12/27 03:57:07;;;;;;;1.10;0.80;;;8.40;99.90;;;;;;5035166;28;20559;-83
2020/12/27 03:59:33;;;;;;;1.00;0.73;;;8.60;99.90;;;;;;5035104;28;20196;-83
2020/12/27 04:02:00;;;;;;;1.10;0.88;;;8.70;99.90;;;;;;5034732;28;20191;-83
2020/12/27 04:04:27;;;;;;;1.20;0.85;;;8.80;99.90;;;;;;5034790;28;20199;-83
2020/12/27 04:06:54;;;;;;;1.02;0.90;;;9.00;99.90;;;;;;5034797;28;20223;-83
2020/12/27 04:09:20;;;;;;;1.20;0.88;;;9.10;99.90;;;;;;5034822;28;20207;-83
2020/12/27 04:11:46;;;;;;;1.20;1.00;;;8.80;99.90;;;;;;5034605;28;20195;-83
2020/12/27 04:14:12;;;;;;;1.00;0.73;;;8.80;99.90;;;;;;5033686;28;20266;-83
2020/12/27 04:16:39;;;;;;;1.40;0.95;;;8.60;99.90;;;;;;5034616;28;20199;-83
2020/12/27 04:19:05;;;;;;;0.90;0.80;;;8.30;99.90;;;;;;5034626;28;20249;-83
2020/12/27 04:21:31;;;;;;;1.15;1.00;;;8.40;99.90;;;;;;5034635;28;20257;-83
2020/12/27 04:23:58;;;;;;;1.33;0.77;;;8.50;99.90;;;;;;5034743;28;20199;-82
2020/12/27 04:26:25;;;;;;;1.00;0.90;;;8.70;99.90;;;;;;5034768;28;20196;-83
2020/12/27 04:28:51;;;;;;;0.98;0.85;;;8.70;99.90;;;;;;5034623;28;20203;-83
2020/12/27 04:31:20;;;;;;;1.30;1.00;;;8.60;99.90;;;;;;5034344;28;20196;-83
2020/12/27 04:33:46;;;;;;;1.63;0.90;;;8.60;99.90;;;;;;5033826;28;20233;-83
2020/12/27 04:36:14;;;;;;;2.03;0.88;;;8.70;99.90;;;;;;5034178;28;20234;-83
2020/12/27 04:38:41;;;;;;;1.35;0.90;;;8.80;99.90;;;;;;5034325;28;20199;-83
2020/12/27 04:41:08;;;;;;;1.20;1.10;;;8.60;99.90;;;;;;5034098;28;20559;-83
2020/12/27 04:43:37;;;;;;;1.00;0.70;;;8.70;99.90;;;;;;5034110;28;20207;-83
2020/12/27 04:46:04;;;;;;;3.20;1.05;;;8.80;99.90;;;;;;5034177;28;20195;-83
2020/12/27 04:48:32;;;;;;;1.00;0.90;;;8.70;99.90;;;;;;5034049;28;20195;-84
2020/12/27 04:51:03;;;;;;;1.17;0.80;;;8.70;99.90;;;;;;5034126;28;20192;-83
2020/12/27 04:53:29;;;;;;;1.00;0.73;;;8.50;99.90;;;;;;5034147;28;20200;-83
2020/12/27 04:55:57;;;;;;;1.10;0.70;;;8.60;99.90;;;;;;5033809;28;20223;-83
2020/12/27 04:58:24;;;;;;;1.50;0.80;;;8.50;99.90;;;;;;5034154;28;20199;-83
2020/12/27 05:00:50;;;;;;;1.08;0.90;;;8.50;99.90;;;;;;5033704;28;20200;-83
2020/12/27 05:03:16;;;;;;;1.85;0.80;;;8.70;99.90;;;;;;5033566;28;20195;-83
2020/12/27 05:05:43;;;;;;;1.10;0.90;;;8.60;99.90;;;;;;5033936;28;20199;-83
2020/12/27 05:08:09;;;;;;;1.50;1.00;;;8.60;99.90;;;;;;5033635;28;20196;-83
2020/12/27 05:10:39;;;;;;;0.90;0.70;;;8.80;99.90;;;;;;5033571;28;20198;-83
2020/12/27 05:13:07;;;;;;;1.05;0.70;;;8.80;99.90;;;;;;5033670;28;20200;-83
2020/12/27 05:15:35;;;;;;;0.90;0.73;;;8.70;99.90;;;;;;5033594;28;20294;-83
2020/12/27 05:18:01;;;;;;;1.17;0.77;;;8.80;99.90;;;;;;5033675;28;20659;-83
2020/12/27 05:20:27;;;;;;;1.10;0.80;;;8.80;99.90;;;;;;5033657;28;20199;-83
2020/12/27 05:22:59;;;;;;;1.33;0.70;;;8.80;99.90;;;;;;5033584;28;20195;-83
2020/12/27 05:25:26;;;;;;;1.13;0.80;;;8.70;99.90;;;;;;5033243;28;20242;-83
2020/12/27 05:27:55;;;;;;;1.75;1.02;;;8.90;99.90;;;;;;5033585;28;20282;-83
2020/12/27 05:30:26;;;;;;;1.00;0.80;;;8.80;99.90;;;;;;5033586;28;20552;-83
2020/12/27 05:32:53;;;;;;;1.20;1.10;;;8.80;99.90;;;;;;5033322;28;20227;-82
2020/12/27 05:35:20;;;;;;;0.90;0.70;;;8.60;99.90;;;;;;5033471;28;20249;-83
2020/12/27 05:37:46;;;;;;;4.75;0.80;;;8.60;99.90;;;;;;5033363;28;20203;-83
2020/12/27 05:40:13;;;;;;;0.80;0.60;;;8.40;99.90;;;;;;5033496;28;20557;-83
2020/12/27 05:42:40;;;;;;;0.90;0.60;;;8.40;99.90;;;;;;5033226;28;20200;-83
2020/12/27 05:45:13;;;;;;;1.00;0.70;;;8.60;99.90;;;;;;5033348;28;20195;-83
2020/12/27 05:47:40;;;;;;;0.90;0.70;;;8.50;99.90;;;;;;5033176;28;20225;-83
2020/12/27 05:50:10;;;;;;;1.10;0.80;;;8.70;99.90;;;;;;5033068;28;20257;-83
2020/12/27 05:52:44;;;;;;;0.90;0.70;;;8.60;99.90;;;;;;5033371;28;20218;-83
2020/12/27 05:55:16;;;;;;;0.90;0.73;;;8.50;99.90;;;;;;5033408;28;20638;-84
2020/12/27 05:57:43;;;;;;;1.00;0.70;;;8.40;99.90;;;;;;5016197;28;20655;-83
2020/12/27 06:00:10;;;;;;;1.02;0.82;;;8.30;99.90;;;;;;5033017;28;20203;-83
2020/12/27 06:02:40;;;;;;;9.27;0.90;;;8.50;99.90;;;;;;5033147;28;20265;-83
2020/12/27 06:05:12;;;;;;;1.00;0.77;;;8.50;99.90;;;;;;5033075;28;20204;-83
2020/12/27 06:07:40;;;;;;;1.00;0.70;;;8.70;99.90;;;;;;5033031;28;20541;-83
2020/12/27 06:10:14;;;;;;;0.90;0.60;;;8.70;99.90;;;;;;5032953;28;20203;-83
2020/12/27 06:13:24;;;;;;;0.90;0.70;;;8.50;99.90;;;;;;5032858;28;20200;-83
2020/12/27 06:15:58;;;;;;;0.90;0.70;;;8.50;99.90;;;;;;5032962;28;20227;-83
2020/12/27 06:18:28;;;;;;;1.00;0.80;;;8.40;99.90;;;;;;5033059;28;20203;-83
2020/12/27 06:21:09;;;;;;;1.20;0.70;;;8.60;99.90;;;;;;5033122;28;20538;-83
2020/12/27 06:23:36;;;;;;;0.98;0.70;;;8.70;99.90;;;;;;5033051;28;20205;-83
2020/12/27 06:26:04;;;;;;;1.10;0.70;;;8.60;99.90;;;;;;5033011;28;20211;-83
2020/12/27 06:28:30;;;;;;;1.00;0.88;;;8.60;99.90;;;;;;5032956;28;20287;-83
2020/12/27 06:31:00;;;;;;;1.00;0.80;;;8.70;99.90;;;;;;5032869;28;20651;-83
2020/12/27 06:33:31;;;;;;;1.00;0.80;;;8.50;99.90;;;;;;5032873;28;20219;-83
2020/12/27 06:35:57;;;;;;;1.00;0.80;;;8.50;99.90;;;;;;5033215;28;20231;-83
2020/12/27 06:38:25;;;;;;;3.05;1.10;;;8.30;99.90;;;;;;5036852;28;20200;-82
2020/12/27 06:40:55;;;;;;;0.90;0.70;;;8.50;99.90;;;;;;5036288;28;20200;-83
2020/12/27 06:43:22;;;;;;;1.00;0.80;;;8.80;99.90;;;;;;5036370;28;20195;-83
2020/12/27 06:45:50;;;;;;;1.00;0.80;;;8.80;99.90;;;;;;5036358;28;20203;-83
2020/12/27 06:48:31;;;;;;;0.98;0.75;;;8.90;99.90;;;;;;5036397;28;20569;-83
2020/12/27 06:50:57;;;;;;;1.00;0.60;;;8.90;99.90;;;;;;5036222;28;20199;-83
2020/12/27 06:53:45;;;;;;;0.98;0.80;;;8.90;99.90;;;;;;5036483;28;20196;-84
2020/12/27 06:56:12;;;;;;;1.75;0.70;;;8.80;99.90;;;;;;5036019;28;20709;-83
2020/12/27 06:58:39;;;;;;;2.13;1.55;;;8.70;99.90;;;;;;5036085;28;20655;-83
2020/12/27 07:01:11;;;;;;;1.45;0.70;;;8.80;99.90;;;;;;5036073;28;20214;-83
2020/12/27 07:03:37;;;;;;;1.13;0.70;;;8.80;99.90;;;;;;5035905;28;20202;-82
2020/12/27 07:06:23;;;;;;;0.93;0.70;;;8.70;99.90;;;;;;5035985;28;20559;-84
2020/12/27 07:08:51;;;;;;;1.05;0.95;;;8.90;99.90;;;;;;5035954;28;20218;-83
2020/12/27 07:11:19;;;;;;;0.90;0.70;;;8.90;99.90;;;;;;5035716;28;20609;-83
2020/12/27 07:13:47;;;;;;;0.90;0.70;;;8.80;99.90;;;;;;5035729;28;20206;-83
2020/12/27 07:16:14;;;;;;;1.00;0.70;;;9.00;99.90;;;;;;5035680;28;20350;-83
2020/12/27 07:18:43;;;;;;;1.20;0.80;;;8.90;99.90;;;;;;5035669;28;20207;-83
2020/12/27 07:21:13;;;;;;;1.55;0.80;;;8.80;99.90;;;;;;5035462;28;20203;-83
2020/12/27 07:23:47;;;;;;;1.10;0.80;;;8.80;99.90;;;;;;5035706;28;20232;-83
2020/12/27 07:26:15;;;;;;;1.00;0.80;;;8.70;99.90;;;;;;5035576;28;20321;-83
2020/12/27 07:28:42;;;;;;;1.20;0.80;;;8.80;99.90;;;;;;5035674;28;20199;-84
2020/12/27 07:31:09;;;;;;;1.45;1.05;;;8.80;99.90;;;;;;5035739;28;20658;-83
2020/12/27 07:33:37;;;;;;;1.00;0.80;;;8.90;99.90;;;;;;5035287;28;20645;-83
2020/12/27 07:36:06;;;;;;;1.00;0.90;;;8.90;99.90;;;;;;5035587;28;20235;-83
2020/12/27 07:39:03;;;;;;;1.00;0.70;;;8.80;99.90;;;;;;5035431;28;20654;-83
2020/12/27 07:41:34;;;;;;;1.00;0.77;;;9.00;99.90;;;;;;4974933;28;20205;-83
2020/12/27 07:44:00;;;;;;;0.90;0.70;;;9.10;99.90;;;;;;5023179;28;20200;-83
2020/12/27 07:46:27;;;;;;;1.00;0.80;;;9.10;99.90;;;;;;5035377;28;20204;-84
2020/12/27 07:48:54;;;;;;;0.93;0.77;;;9.10;99.90;;;;;;5034969;28;20195;-83
2020/12/27 07:51:22;;;;;;;0.90;0.70;;;8.90;99.90;;;;;;5035347;28;20192;-83
2020/12/27 07:53:49;;;;;;;1.15;0.90;;;8.60;99.90;;;;;;5035161;28;20261;-83
2020/12/27 07:56:20;;;;;;;0.93;0.70;;;8.80;99.90;;;;;;5035040;28;20230;-83
2020/12/27 07:58:49;;;;;;;0.90;0.70;;;8.90;99.90;;;;;;5034866;28;20266;-83
2020/12/27 08:01:23;;;;;;;1.00;0.70;;;8.90;99.90;;;;;;5034821;28;20803;-83
2020/12/27 08:03:54;;;;;;;0.90;0.60;;;8.90;99.90;;;;;;5034789;28;20198;-81
2020/12/27 08:06:21;;;;;;;1.20;0.77;;;8.80;99.90;;;;;;5035058;28;20196;-83
2020/12/27 08:08:48;;;;;;;1.00;0.77;;;8.70;99.90;;;;;;5034894;28;20516;-83
2020/12/27 08:11:19;;;;;;;0.88;0.70;;;8.80;99.90;;;;;;5034794;28;20204;-83
2020/12/27 08:13:51;;;;;;;1.10;0.80;;;8.90;99.90;;;;;;5017471;28;20231;-81
2020/12/27 08:16:17;;;;;;;0.90;0.70;;;8.90;99.90;;;;;;5034447;28;20223;-81
2020/12/27 08:18:43;;;;;;;1.00;0.70;;;8.70;99.90;;;;;;5034628;28;20207;-81
2020/12/27 08:21:10;;;;;;;1.70;0.63;;;8.80;99.90;;;;;;5034505;28;20200;-81
2020/12/27 08:23:37;;;;;;;1.23;0.80;;;8.80;99.90;;;;;;5033266;28;20195;-87
2020/12/27 08:26:06;;;;;;;1.13;0.70;;;8.90;99.90;;;;;;5018594;28;20562;-91
2020/12/27 08:28:35;;;;;;;0.95;0.77;;;8.80;99.90;;;;;;5022924;28;20647;-81
2020/12/27 08:31:02;;;;;;;1.17;0.68;;;9.00;99.90;;;;;;5027626;28;20563;-81
2020/12/27 08:33:28;;;;;;;0.90;0.70;;;8.90;99.90;;;;;;5014494;28;20232;-81
2020/12/27 08:35:56;;;;;;;0.90;0.70;;;8.80;99.90;;;;;;5014322;28;20224;-81
2020/12/27 08:38:36;;;;;;;0.90;0.70;;;8.70;99.90;;;;;;5013361;28;20291;-83
2020/12/27 08:41:11;;;;;;;0.90;0.60;;;8.90;99.90;;;;;;5012579;28;20200;-81
2020/12/27 08:44:11;;;;;;;0.90;0.70;;;8.70;99.90;;;;;;5014338;28;20672;-81
2020/12/27 08:46:40;;;;;;;0.98;0.73;;;8.90;99.90;;;;;;5014343;28;20204;-81
2020/12/27 08:49:11;;;;;;;1.10;0.73;;;8.80;99.90;;;;;;5014353;28;20205;-81
2020/12/27 08:51:42;;;;;;;0.90;0.70;;;8.90;99.90;;;;;;5014215;28;20207;-80
2020/12/27 08:54:12;;;;;;;1.00;0.70;;;9.00;99.90;;;;;;5014171;28;20200;-82
2020/12/27 08:56:39;;;;;;;0.90;0.70;;;9.10;99.90;;;;;;5014208;28;20224;-81
2020/12/27 08:59:05;;;;;;;1.00;0.70;;;9.10;99.90;;;;;;5013718;28;20702;-81
2020/12/27 09:01:31;;;;;;;0.90;0.60;;;9.00;99.90;;;;;;5014068;28;20192;-82
2020/12/27 09:03:58;;;;;;;0.90;0.60;;;9.10;99.90;;;;;;5013845;28;20249;-83
2020/12/27 09:06:24;;;;;;;0.90;0.70;;;8.90;99.90;;;;;;5013471;28;20196;-80
2020/12/27 09:08:58;;;;;;;0.98;0.80;;;9.10;99.90;;;;;;5014007;28;20238;-81
2020/12/27 09:11:25;;;;;;;0.90;0.65;;;9.10;99.90;;;;;;5014041;28;20612;-89
2020/12/27 09:13:51;;;;;;;0.98;0.70;;;9.00;99.90;;;;;;5013995;28;20219;-83
2020/12/27 09:16:33;;;;;;;0.82;0.60;;;9.00;99.90;;;;;;5013686;28;20256;-82
2020/12/27 09:19:09;;;;;;;1.00;0.60;;;8.90;99.90;;;;;;5013838;28;20278;-82
2020/12/27 09:21:41;;;;;;;1.10;0.85;;;8.90;99.90;;;;;;5013618;28;20200;-81
2020/12/27 09:24:15;;;;;;;1.00;0.70;;;8.80;99.90;;;;;;5013891;28;20605;-82
2020/12/27 09:26:41;;;;;;;0.85;0.60;;;8.80;99.90;;;;;;5013587;28;20203;-81
2020/12/27 09:29:16;;;;;;;0.90;0.60;;;8.90;99.90;;;;;;5013603;28;20200;-81
2020/12/27 09:31:42;;;;;;;1.00;0.82;;;9.00;99.90;;;;;;5013686;28;20651;-81
2020/12/27 09:34:10;;;;;;;1.10;0.75;;;9.00;99.90;;;;;;5013507;28;20232;-82
2020/12/27 09:36:36;;;;;;;0.93;0.70;;;9.00;99.90;;;;;;5021224;28;20219;-81
2020/12/27 09:39:04;;;;;;;0.98;0.70;;;9.00;99.90;;;;;;5033458;28;20195;-83
2020/12/27 09:41:36;;;;;;;0.90;0.60;;;9.00;99.90;;;;;;5033028;28;20203;-81
2020/12/27 09:44:03;;;;;;;0.90;0.70;;;8.90;99.90;;;;;;5033215;28;20662;-82
2020/12/27 09:46:43;;;;;;;0.90;0.60;;;8.60;99.90;;;;;;5033111;28;20277;-81
2020/12/27 09:49:18;;;;;;;0.90;0.65;;;8.70;99.90;;;;;;5033315;28;20204;-81
2020/12/27 09:51:44;;;;;;;1.10;0.88;;;8.80;99.90;;;;;;5032937;28;20650;-80
2020/12/27 09:54:10;;;;;;;0.98;0.63;;;8.60;99.90;;;;;;5033273;28;20218;-81
2020/12/27 09:56:41;;;;;;;1.02;0.80;;;8.50;99.90;;;;;;5033032;28;20223;-80
2020/12/27 09:59:07;;;;;;;1.10;0.80;;;8.60;99.90;;;;;;5033070;28;20195;-81
2020/12/27 10:01:33;;;;;;;1.67;0.70;;;8.50;99.90;;;;;;5032764;28;20206;-81
2020/12/27 10:04:02;;;;;;;1.10;0.90;;;8.30;99.90;;;;;;5029227;28;20192;-84
2020/12/27 10:06:31;;;;;;;0.90;0.60;;;8.40;99.90;;;;;;5027819;28;20206;-87
2020/12/27 10:08:57;;;;;;;1.00;0.80;;;8.40;99.90;;;;;;5022965;28;20739;-87
2020/12/27 10:11:24;;;;;;;0.90;0.60;;;8.50;99.90;;;;;;5021542;28;20549;-83
2020/12/27 10:13:50;;;;;;;0.90;0.70;;;8.30;99.90;;;;;;5020694;28;20255;-82
2020/12/27 10:16:19;;;;;;;1.77;0.85;;;8.20;99.90;;;;;;5032972;28;20570;-87
2020/12/27 10:18:46;;;;;;;1.38;0.68;;;8.40;99.90;;;;;;5024373;28;20187;-81
2020/12/27 10:21:13;;;;;;;1.00;0.70;;;8.50;99.90;;;;;;5029638;28;20196;-82
2020/12/27 10:23:41;;;;;;;1.70;0.93;;;8.50;99.90;;;;;;5024316;28;20199;-82
2020/12/27 10:26:07;;;;;;;1.00;0.70;;;8.40;99.90;;;;;;5025390;28;20199;-82
2020/12/27 10:28:35;;;;;;;2.50;0.70;;;8.50;99.90;;;;;;5028981;28;20207;-84
2020/12/27 10:31:03;;;;;;;1.05;0.77;;;8.80;99.90;;;;;;5027636;28;20277;-86
2020/12/27 10:33:29;;;;;;;0.98;0.70;;;8.80;99.90;;;;;;5022478;28;20585;-82
2020/12/27 10:35:58;;;;;;;0.95;0.77;;;8.60;99.90;;;;;;5026391;28;20273;-81
2020/12/27 10:38:24;;;;;;;1.00;0.70;;;8.60;99.90;;;;;;5027849;28;20215;-84
2020/12/27 10:40:51;;;;;;;1.50;0.80;;;8.50;99.90;;;;;;5027790;28;20195;-82
2020/12/27 10:43:19;;;;;;;1.30;0.82;;;8.50;99.90;;;;;;5026414;28;20192;-87
2020/12/27 10:45:46;;;;;;;2.10;0.80;;;8.50;99.90;;;;;;5023574;28;20192;-81
2020/12/27 10:48:13;;;;;;;1.00;0.80;;;8.50;99.90;;;;;;5021158;28;20196;-89
2020/12/27 10:50:40;;;;;;;1.20;0.80;;;8.80;99.90;;;;;;5030070;28;20284;-84
2020/12/27 10:53:10;;;;;;;0.90;0.77;;;8.70;99.90;;;;;;5029976;28;20647;-87
2020/12/27 10:55:45;;;;;;;1.00;0.80;;;8.80;99.90;;;;;;5029670;28;20229;-81
2020/12/27 10:58:12;;;;;;;1.20;0.70;;;8.70;99.90;;;;;;5022415;28;20223;-81
2020/12/27 11:00:38;;;;;;;1.00;0.90;;;8.80;99.90;;;;;;5020138;28;20199;-81
2020/12/27 11:03:05;;;;;;;0.95;0.65;;;8.70;99.90;;;;;;5023628;28;20199;-88
2020/12/27 11:05:32;;;;;;;1.00;0.73;;;8.80;99.90;;;;;;5030115;28;20187;-84
2020/12/27 11:07:58;;;;;;;0.90;0.70;;;8.80;99.90;;;;;;5023059;28;20187;-81
2020/12/27 11:10:24;;;;;;;1.30;1.00;;;8.60;99.90;;;;;;5018130;28;20619;-84
2020/12/27 11:12:50;;;;;;;1.13;0.73;;;8.60;99.90;;;;;;5023684;28;20184;-80
2020/12/27 11:15:17;;;;;;;1.00;0.77;;;8.20;99.90;;;;;;5035435;28;20231;-81
2020/12/27 11:17:44;;;;;;;1.00;0.80;;;8.40;99.90;;;;;;5035779;28;20195;-81
2020/12/27 11:20:13;;;;;;;1.00;0.75;;;8.40;99.90;;;;;;5035733;28;20530;-81
2020/12/27 11:22:40;;;;;;;1.00;0.80;;;8.30;99.90;;;;;;5016444;28;20242;-81
2020/12/27 11:25:06;;;;;;;0.90;0.77;;;8.20;99.90;;;;;;5015841;28;20283;-83
2020/12/27 11:27:32;;;;;;;1.35;0.70;;;8.30;99.90;;;;;;5015591;28;20227;-82
2020/12/27 11:29:59;;;;;;;0.90;0.70;;;8.50;99.90;;;;;;5015831;28;20196;-82
2020/12/27 11:32:26;;;;;;;1.00;0.75;;;8.60;99.90;;;;;;5015488;28;20224;-82
2020/12/27 11:34:52;;;;;;;0.95;0.73;;;8.60;99.90;;;;;;5015558;28;20200;-82
2020/12/27 11:37:18;;;;;;;2.15;0.90;;;8.70;99.90;;;;;;5015630;28;20200;-82
2020/12/27 11:39:44;;;;;;;1.00;0.80;;;8.80;99.90;;;;;;5015807;28;20207;-81
2020/12/27 11:42:10;;;;;;;1.00;0.77;;;8.80;99.90;;;;;;5015500;28;20196;-81
2020/12/27 11:44:37;;;;;;;1.02;0.85;;;8.80;99.90;;;;;;5015274;28;20196;-81
2020/12/27 11:47:03;;;;;;;1.17;0.90;;;8.80;99.90;;;;;;5015510;28;20204;-81
2020/12/27 11:49:30;;;;;;;1.20;0.80;;;8.90;99.90;;;;;;5015511;28;20196;-81
2020/12/27 11:51:57;;;;;;;2.38;0.88;;;8.90;99.90;;;;;;5015223;28;20651;-81
2020/12/27 11:54:23;;;;;;;1.10;0.80;;;9.00;99.90;;;;;;5015233;28;20209;-81
2020/12/27 11:56:50;;;;;;;1.00;0.80;;;9.10;99.90;;;;;;5015043;28;20227;-81
2020/12/27 11:59:16;;;;;;;1.10;1.00;;;9.10;99.90;;;;;;5015343;28;20665;-81
2020/12/27 12:01:45;;;;;;;1.00;0.77;;;9.20;99.90;;;;;;5014994;28;20196;-81
2020/12/27 12:04:11;;;;;;;3.10;0.80;;;9.10;99.90;;;;;;5015086;28;20204;-81
2020/12/27 12:06:39;;;;;;;1.00;0.73;;;8.90;99.90;;;;;;5015108;28;20196;-81
2020/12/27 12:09:05;;;;;;;0.95;0.70;;;8.80;99.90;;;;;;5015031;28;20196;-81
2020/12/27 12:11:32;;;;;;;0.90;0.70;;;9.10;99.90;;;;;;5015037;28;20548;-81
2020/12/27 12:13:59;;;;;;;1.05;0.80;;;9.00;99.90;;;;;;5014807;28;20197;-82
2020/12/27 12:16:26;;;;;;;0.90;0.70;;;9.00;99.90;;;;;;5014630;28;20260;-82
2020/12/27 12:18:52;;;;;;;1.00;0.80;;;9.10;99.90;;;;;;5014808;28;20689;-81
2020/12/27 12:21:18;;;;;;;0.90;0.70;;;8.90;99.90;;;;;;5014643;28;20196;-87
2020/12/27 12:23:45;;;;;;;1.63;0.70;;;8.80;99.90;;;;;;5014352;28;20250;-82
2020/12/27 12:26:17;;;;;;;1.00;0.80;;;8.90;99.90;;;;;;5014155;28;20216;-83
2020/12/27 12:28:43;;;;;;;1.00;0.73;;;8.60;99.90;;;;;;5014564;28;20572;-82
2020/12/27 12:31:10;;;;;;;2.10;0.88;;;8.60;99.90;;;;;;5014660;28;20200;-82
2020/12/27 12:33:37;;;;;;;1.27;0.93;;;8.60;99.90;;;;;;5013613;28;20232;-82
2020/12/27 12:36:03;;;;;;;1.30;0.82;;;8.60;99.90;;;;;;5014401;28;20251;-82
2020/12/27 12:38:29;;;;;;;1.10;0.90;;;8.50;99.90;;;;;;5014415;28;20196;-82
2020/12/27 12:40:56;;;;;;;1.08;0.90;;;8.60;99.90;;;;;;5015325;28;20192;-82
2020/12/27 12:43:23;;;;;;;0.93;0.70;;;8.40;99.90;;;;;;5034142;28;20651;-86
2020/12/27 12:45:50;;;;;;;1.10;0.80;;;8.50;99.90;;;;;;5023933;28;20200;-87
2020/12/27 12:48:16;;;;;;;1.05;0.90;;;8.40;99.90;;;;;;5015665;28;20207;-84
2020/12/27 12:50:42;;;;;;;1.10;0.90;;;8.30;99.90;;;;;;5024767;28;20203;-84
2020/12/27 12:53:08;;;;;;;1.10;0.80;;;8.50;99.90;;;;;;5034145;28;20196;-84
2020/12/27 12:55:35;;;;;;;1.20;0.90;;;8.40;99.90;;;;;;5033698;28;20569;-83
2020/12/27 12:58:02;;;;;;;2.33;1.35;;;8.60;99.90;;;;;;5032649;28;20215;-87
2020/12/27 13:00:28;;;;;;;1.20;0.90;;;8.60;99.90;;;;;;5033081;28;20199;-84
2020/12/27 13:02:54;;;;;;;1.40;0.80;;;8.40;99.90;;;;;;5025696;28;20557;-86